createdAt,value
2023-02-26T00:00:15.708Z,57.16
2023-02-26T00:02:20.499Z,56.87
2023-02-26T00:04:22.376Z,56.97
2023-02-26T00:06:25.963Z,57.20
2023-02-26T00:08:28.331Z,56.81
2023-02-26T00:10:30.282Z,57.09
2023-02-26T00:12:32.540Z,56.76
2023-02-26T00:14:34.973Z,57.23
2023-02-26T00:16:37.388Z,57.50
2023-02-26T00:18:39.788Z,57.47
2023-02-26T00:20:44.157Z,57.33
2023-02-26T00:22:48.749Z,57.76
2023-02-26T00:24:50.757Z,57.82
2023-02-26T00:26:59.345Z,57.55
2023-02-26T00:29:04.370Z,57.38
2023-02-26T00:31:08.453Z,57.31
2023-02-26T00:33:12.175Z,57.75
2023-02-26T00:35:22.032Z,57.46
2023-02-26T00:37:31.750Z,57.86
2023-02-26T00:39:44.232Z,57.90
2023-02-26T00:41:46.448Z,58.05
2023-02-26T00:43:49.677Z,57.33
2023-02-26T00:45:56.524Z,57.80
2023-02-26T00:48:05.505Z,57.82
2023-02-26T00:50:14.831Z,57.36
2023-02-26T00:52:31.500Z,57.47
2023-02-26T00:54:33.366Z,57.35
2023-02-26T00:56:35.255Z,57.83
2023-02-26T00:58:37.190Z,57.64
2023-02-26T01:00:39.500Z,57.55
2023-02-26T01:02:42.042Z,57.36
2023-02-26T01:04:44.713Z,57.48
2023-02-26T01:06:52.360Z,57.48
2023-02-26T01:09:01.594Z,57.17
2023-02-26T01:11:03.854Z,57.71
2023-02-26T01:13:06.310Z,57.42
2023-02-26T01:15:09.084Z,57.10
2023-02-26T01:17:17.671Z,57.62
2023-02-26T01:19:29.984Z,57.69
2023-02-26T01:21:39.106Z,57.35
2023-02-26T01:23:46.927Z,57.32
2023-02-26T01:25:57.863Z,57.62
2023-02-26T01:28:00.171Z,57.30
2023-02-26T01:30:02.729Z,57.81
2023-02-26T01:32:24.728Z,58.04
2023-02-26T01:34:35.393Z,57.75
2023-02-26T01:36:43.372Z,58.25
2023-02-26T01:39:03.640Z,57.76
2023-02-26T01:41:13.549Z,58.21
2023-02-26T01:43:23.244Z,58.04
2023-02-26T01:45:33.724Z,58.35
2023-02-26T01:47:45.631Z,58.59
2023-02-26T01:49:48.066Z,58.40
2023-02-26T01:51:51.738Z,58.46
2023-02-26T01:53:53.606Z,58.64
2023-02-26T01:56:00.454Z,58.42
2023-02-26T01:58:03.246Z,58.72
2023-02-26T02:00:06.432Z,58.41
2023-02-26T02:02:10.989Z,58.60
2023-02-26T02:04:15.869Z,58.84
2023-02-26T02:06:23.445Z,58.63
2023-02-26T02:08:25.728Z,59.16
2023-02-26T02:10:28.394Z,58.93
2023-02-26T02:12:38.247Z,59.32
2023-02-26T02:14:40.854Z,58.92
2023-02-26T02:16:53.605Z,58.46
2023-02-26T02:19:06.517Z,58.63
2023-02-26T02:21:14.586Z,58.98
2023-02-26T02:23:19.933Z,59.01
2023-02-26T02:25:28.075Z,58.96
2023-02-26T02:27:44.092Z,59.06
2023-02-26T02:29:49.549Z,59.20
2023-02-26T02:32:02.470Z,58.82
2023-02-26T02:34:17.444Z,58.90
2023-02-26T02:36:28.514Z,59.20
2023-02-26T02:38:37.018Z,58.73
2023-02-26T02:40:46.236Z,59.25
2023-02-26T02:42:58.264Z,58.84
2023-02-26T02:45:08.760Z,58.64
2023-02-26T02:47:12.846Z,59.16
2023-02-26T02:49:24.830Z,58.76
2023-02-26T02:51:33.844Z,59.00
2023-02-26T02:53:41.079Z,59.20
2023-02-26T02:55:53.728Z,59.07
2023-02-26T02:58:01.896Z,58.69
2023-02-26T03:00:10.842Z,58.52
2023-02-26T03:02:20.395Z,59.00
2023-02-26T03:04:22.207Z,59.10
2023-02-26T03:06:24.724Z,59.43
2023-02-26T03:08:31.768Z,59.19
2023-02-26T03:10:33.923Z,59.33
2023-02-26T03:12:36.327Z,58.90
2023-02-26T03:14:38.799Z,59.57
2023-02-26T03:16:46.820Z,59.31
2023-02-26T03:18:53.122Z,59.41
2023-02-26T03:21:01.146Z,59.42
2023-02-26T03:23:09.228Z,59.35
2023-02-26T03:25:13.216Z,59.57
2023-02-26T03:27:24.406Z,59.32
2023-02-26T03:29:27.051Z,58.75
2023-02-26T03:31:36.198Z,59.37
2023-02-26T03:33:48.906Z,59.20
2023-02-26T03:35:59.651Z,59.02
2023-02-26T03:38:09.995Z,58.95
2023-02-26T03:40:21.824Z,58.59
2023-02-26T03:42:27.217Z,58.57
2023-02-26T03:44:35.137Z,59.11
2023-02-26T03:46:43.309Z,58.81
2023-02-26T03:48:46.977Z,58.59
2023-02-26T03:50:54.793Z,58.49
2023-02-26T03:53:02.179Z,58.67
2023-02-26T03:55:10.910Z,58.46
2023-02-26T03:57:15.008Z,58.87
2023-02-26T03:59:17.647Z,58.45
2023-02-26T04:01:26.177Z,58.43
2023-02-26T04:03:35.583Z,58.89
2023-02-26T04:05:42.310Z,58.94
2023-02-26T04:07:46.316Z,59.01
2023-02-26T04:09:50.996Z,59.31
2023-02-26T04:11:53.900Z,58.91
2023-02-26T04:13:55.673Z,58.75
2023-02-26T04:15:57.515Z,58.89
2023-02-26T04:18:01.582Z,59.25
2023-02-26T04:20:08.129Z,59.42
2023-02-26T04:22:10.563Z,59.74
2023-02-26T04:24:12.352Z,59.34
2023-02-26T04:26:14.210Z,59.24
2023-02-26T04:28:16.625Z,59.34
2023-02-26T04:30:18.768Z,59.22
2023-02-26T04:32:20.691Z,59.46
2023-02-26T04:34:22.523Z,59.52
2023-02-26T04:36:24.711Z,59.51
2023-02-26T04:38:27.324Z,58.95
2023-02-26T04:40:29.138Z,59.24
2023-02-26T04:42:30.992Z,59.03
2023-02-26T04:44:32.806Z,58.64
2023-02-26T04:46:34.589Z,58.71
2023-02-26T04:48:36.396Z,58.64
2023-02-26T04:50:38.162Z,59.24
2023-02-26T04:52:42.051Z,58.87
2023-02-26T04:54:43.868Z,58.62
2023-02-26T04:56:45.653Z,58.48
2023-02-26T04:58:47.450Z,58.67
2023-02-26T05:00:51.762Z,58.80
2023-02-26T05:02:53.543Z,58.44
2023-02-26T05:04:55.362Z,58.42
2023-02-26T05:06:57.253Z,58.81
2023-02-26T05:08:59.006Z,58.29
2023-02-26T05:11:00.860Z,58.02
2023-02-26T05:13:02.754Z,58.08
2023-02-26T05:15:06.023Z,58.49
2023-02-26T05:17:08.090Z,58.39
2023-02-26T05:19:09.868Z,57.78
2023-02-26T05:21:11.699Z,57.46
2023-02-26T05:23:13.481Z,58.33
2023-02-26T05:25:15.340Z,58.20
2023-02-26T05:27:17.177Z,57.80
2023-02-26T05:29:19.613Z,57.68
2023-02-26T05:31:23.781Z,57.94
2023-02-26T05:33:26.766Z,58.22
2023-02-26T05:35:28.673Z,57.80
2023-02-26T05:37:30.645Z,58.04
2023-02-26T05:39:32.425Z,57.63
2023-02-26T05:41:34.323Z,58.12
2023-02-26T05:43:36.136Z,58.12
2023-02-26T05:45:37.976Z,57.70
2023-02-26T05:47:40.044Z,57.93
2023-02-26T05:49:41.968Z,57.55
2023-02-26T05:51:43.779Z,57.93
2023-02-26T05:53:46.121Z,57.93
2023-02-26T05:55:50.488Z,57.64
2023-02-26T05:57:52.292Z,57.61
2023-02-26T05:59:54.102Z,58.34
2023-02-26T06:01:56.041Z,58.01
2023-02-26T06:03:57.824Z,57.16
2023-02-26T06:05:59.679Z,57.52
2023-02-26T06:08:01.497Z,57.29
2023-02-26T06:10:04.111Z,57.67
2023-02-26T06:12:06.804Z,57.51
2023-02-26T06:14:08.644Z,56.91
2023-02-26T06:16:10.469Z,57.25
2023-02-26T06:18:12.319Z,57.36
2023-02-26T06:20:16.232Z,57.69
2023-02-26T06:22:18.660Z,56.92
2023-02-26T06:24:20.568Z,56.45
2023-02-26T06:26:25.215Z,56.62
2023-02-26T06:28:27.287Z,56.76
2023-02-26T06:30:29.234Z,56.87
2023-02-26T06:32:31.239Z,56.79
2023-02-26T06:34:33.839Z,57.08
2023-02-26T06:36:35.725Z,56.80
2023-02-26T06:38:37.622Z,57.14
2023-02-26T06:40:39.712Z,56.95
2023-02-26T06:42:41.701Z,56.91
2023-02-26T06:44:43.499Z,56.78
2023-02-26T06:46:47.741Z,56.79
2023-02-26T06:48:49.524Z,56.63
2023-02-26T06:50:51.433Z,56.91
2023-02-26T06:52:53.216Z,56.87
2023-02-26T06:54:55.048Z,56.93
2023-02-26T06:56:57.890Z,56.96
2023-02-26T06:59:00.059Z,57.06
2023-02-26T07:01:04.779Z,57.03
2023-02-26T07:03:09.432Z,56.81
2023-02-26T07:05:13.689Z,56.99
2023-02-26T07:07:16.402Z,56.28
2023-02-26T07:09:20.206Z,56.12
2023-02-26T07:11:24.655Z,56.70
2023-02-26T07:13:26.819Z,56.73
2023-02-26T07:15:29.587Z,56.79
2023-02-26T07:17:32.008Z,56.75
2023-02-26T07:19:33.853Z,56.17
2023-02-26T07:21:35.647Z,56.26
2023-02-26T07:23:37.466Z,56.26
2023-02-26T07:25:39.357Z,56.50
2023-02-26T07:27:43.820Z,56.09
2023-02-26T07:29:45.809Z,56.14
2023-02-26T07:31:47.802Z,55.85
2023-02-26T07:33:49.665Z,56.13
2023-02-26T07:35:51.503Z,56.43
2023-02-26T07:37:55.525Z,55.61
2023-02-26T07:39:57.330Z,55.81
2023-02-26T07:41:59.137Z,55.47
2023-02-26T07:44:03.126Z,55.88
2023-02-26T07:46:05.492Z,56.09
2023-02-26T07:48:07.842Z,55.97
2023-02-26T07:50:10.984Z,55.80
2023-02-26T07:52:15.111Z,56.15
2023-02-26T07:54:17.166Z,56.33
2023-02-26T07:56:18.937Z,56.38
2023-02-26T07:58:20.849Z,55.55
2023-02-26T08:00:22.995Z,55.65
2023-02-26T08:02:25.084Z,56.45
2023-02-26T08:04:27.139Z,56.57
2023-02-26T08:06:29.671Z,55.54
2023-02-26T08:08:33.311Z,55.47
2023-02-26T08:10:35.144Z,55.64
2023-02-26T08:12:37.023Z,55.30
2023-02-26T08:14:41.585Z,55.71
2023-02-26T08:16:43.374Z,55.22
2023-02-26T08:18:45.566Z,55.49
2023-02-26T08:20:47.526Z,55.96
2023-02-26T08:22:51.528Z,55.52
2023-02-26T08:24:53.465Z,55.18
2023-02-26T08:26:56.635Z,55.58
2023-02-26T08:28:58.438Z,55.46
2023-02-26T08:31:01.563Z,55.34
2023-02-26T08:33:03.650Z,54.97
2023-02-26T08:35:06.454Z,55.29
2023-02-26T08:37:09.376Z,54.76
2023-02-26T08:39:11.134Z,54.22
2023-02-26T08:41:13.069Z,54.20
2023-02-26T08:43:14.859Z,54.81
2023-02-26T08:45:17.095Z,54.07
2023-02-26T08:47:28.210Z,54.24
2023-02-26T08:49:30.845Z,54.07
2023-02-26T08:51:34.973Z,53.75
2023-02-26T08:53:36.940Z,54.04
2023-02-26T08:55:38.747Z,53.99
2023-02-26T08:57:43.636Z,54.17
2023-02-26T08:59:45.527Z,53.95
2023-02-26T09:01:47.698Z,53.95
2023-02-26T09:03:49.597Z,53.69
2023-02-26T09:05:52.023Z,53.89
2023-02-26T09:07:53.973Z,53.38
2023-02-26T09:09:55.788Z,54.07
2023-02-26T09:11:59.053Z,53.74
2023-02-26T09:14:02.395Z,53.75
2023-02-26T09:16:05.043Z,53.83
2023-02-26T09:18:15.431Z,53.63
2023-02-26T09:20:17.869Z,53.53
2023-02-26T09:22:19.732Z,52.80
2023-02-26T09:24:21.857Z,52.74
2023-02-26T09:26:24.370Z,52.87
2023-02-26T09:28:26.587Z,52.66
2023-02-26T09:30:28.699Z,51.89
2023-02-26T09:32:30.747Z,51.96
2023-02-26T09:34:32.692Z,51.74
2023-02-26T09:36:34.608Z,51.28
2023-02-26T09:38:36.734Z,51.44
2023-02-26T09:40:42.105Z,51.13
2023-02-26T09:42:54.643Z,50.87
2023-02-26T09:45:00.395Z,50.69
2023-02-26T09:47:06.953Z,49.04
2023-02-26T09:49:15.160Z,49.01
2023-02-26T09:51:25.114Z,49.25
2023-02-26T09:53:31.669Z,48.71
2023-02-26T09:55:36.749Z,48.25
2023-02-26T09:57:43.888Z,46.93
2023-02-26T09:59:45.797Z,46.81
2023-02-26T10:01:59.804Z,46.68
2023-02-26T10:04:12.305Z,46.22
2023-02-26T10:06:22.652Z,45.84
2023-02-26T10:08:35.704Z,45.33
2023-02-26T10:11:03.872Z,45.31
2023-02-26T10:13:06.238Z,43.91
2023-02-26T10:15:11.059Z,43.71
2023-02-26T10:17:21.789Z,43.19
2023-02-26T10:19:30.944Z,42.02
2023-02-26T10:21:39.648Z,42.23
2023-02-26T10:23:48.973Z,42.61
2023-02-26T10:25:58.411Z,41.75
2023-02-26T10:28:20.192Z,42.03
2023-02-26T10:30:34.104Z,41.55
2023-02-26T10:32:39.778Z,41.20
2023-02-26T10:34:48.070Z,40.76
2023-02-26T10:36:51.297Z,40.61
2023-02-26T10:38:58.879Z,40.65
2023-02-26T10:41:11.766Z,40.24
2023-02-26T10:43:20.027Z,39.36
2023-02-26T10:45:26.593Z,38.63
2023-02-26T10:47:42.371Z,39.00
2023-02-26T10:49:52.654Z,39.06
2023-02-26T10:51:55.322Z,38.07
2023-02-26T10:54:04.171Z,37.99
2023-02-26T10:56:12.988Z,38.04
2023-02-26T10:58:18.250Z,38.01
2023-02-26T11:00:21.473Z,38.06
2023-02-26T11:02:29.600Z,37.97
2023-02-26T11:04:31.492Z,38.16
2023-02-26T11:06:40.444Z,37.63
2023-02-26T11:08:45.720Z,36.75
2023-02-26T11:10:52.709Z,36.49
2023-02-26T11:12:54.590Z,35.88
2023-02-26T11:14:56.488Z,34.84
2023-02-26T11:17:02.559Z,35.17
2023-02-26T11:19:06.655Z,34.54
2023-02-26T11:21:17.977Z,33.63
2023-02-26T11:23:23.254Z,33.41
2023-02-26T11:25:30.309Z,34.19
2023-02-26T11:27:36.087Z,33.12
2023-02-26T11:29:41.114Z,33.31
2023-02-26T11:31:45.032Z,33.28
2023-02-26T11:33:53.476Z,32.71
2023-02-26T11:36:04.316Z,32.79
2023-02-26T11:38:10.438Z,33.35
2023-02-26T11:40:17.348Z,33.59
2023-02-26T11:42:19.442Z,34.22
2023-02-26T11:44:30.217Z,32.96
2023-02-26T11:46:45.077Z,33.42
2023-02-26T11:48:48.737Z,33.20
2023-02-26T11:51:00.562Z,33.76
2023-02-26T11:53:08.361Z,33.83
2023-02-26T11:55:18.911Z,33.72
2023-02-26T11:57:25.727Z,33.54
2023-02-26T11:59:30.790Z,33.86
2023-02-26T12:01:36.844Z,34.26
2023-02-26T12:03:41.149Z,33.02
2023-02-26T12:05:43.382Z,33.00
2023-02-26T12:07:47.085Z,32.42
2023-02-26T12:09:52.008Z,32.49
2023-02-26T12:11:57.640Z,32.60
2023-02-26T12:14:05.859Z,33.27
2023-02-26T12:16:23.106Z,33.61
2023-02-26T12:18:31.263Z,33.14
2023-02-26T12:20:47.757Z,33.43
2023-02-26T12:22:56.294Z,33.23
2023-02-26T12:25:04.324Z,33.71
2023-02-26T12:27:16.908Z,33.80
2023-02-26T12:29:28.497Z,33.33
2023-02-26T12:31:36.595Z,33.69
2023-02-26T12:33:39.685Z,33.99
2023-02-26T12:35:48.408Z,33.91
2023-02-26T12:37:56.483Z,34.50
2023-02-26T12:40:03.017Z,34.43
2023-02-26T12:42:11.073Z,34.39
2023-02-26T12:44:19.203Z,34.19
2023-02-26T12:46:25.693Z,34.12
2023-02-26T12:48:33.984Z,34.78
2023-02-26T12:50:42.146Z,34.62
2023-02-26T12:52:45.901Z,34.87
2023-02-26T12:54:56.350Z,35.42
2023-02-26T12:56:59.176Z,35.01
2023-02-26T12:59:03.848Z,34.92
2023-02-26T13:01:12.102Z,35.55
2023-02-26T13:03:18.135Z,35.05
2023-02-26T13:05:28.558Z,36.09
2023-02-26T13:07:42.328Z,36.19
2023-02-26T13:09:47.729Z,35.82
2023-02-26T13:11:59.116Z,35.87
2023-02-26T13:14:14.928Z,35.36
2023-02-26T13:16:23.154Z,36.20
2023-02-26T13:18:27.893Z,35.20
2023-02-26T13:20:30.194Z,35.62
2023-02-26T13:22:39.741Z,35.40
2023-02-26T13:24:52.120Z,35.08
2023-02-26T13:26:55.773Z,35.91
2023-02-26T13:29:03.342Z,36.53
2023-02-26T13:31:13.165Z,35.49
2023-02-26T13:33:20.928Z,35.76
2023-02-26T13:35:27.270Z,35.39
2023-02-26T13:37:34.439Z,35.64
2023-02-26T13:39:42.896Z,36.50
2023-02-26T13:41:51.395Z,36.78
2023-02-26T13:43:59.453Z,37.93
2023-02-26T13:46:08.041Z,39.31
2023-02-26T13:48:13.556Z,40.01
2023-02-26T13:50:26.521Z,40.26
2023-02-26T13:52:32.344Z,39.82
2023-02-26T13:54:43.897Z,39.24
2023-02-26T13:56:53.235Z,39.33
2023-02-26T13:59:03.209Z,38.92
2023-02-26T14:01:08.734Z,39.35
2023-02-26T14:03:15.598Z,39.03
2023-02-26T14:05:23.878Z,38.71
2023-02-26T14:07:32.067Z,38.54
2023-02-26T14:09:40.867Z,38.89
2023-02-26T14:11:59.063Z,38.64
2023-02-26T14:14:06.083Z,38.96
2023-02-26T14:16:14.350Z,37.62
2023-02-26T14:18:20.814Z,37.30
2023-02-26T14:20:27.421Z,36.63
2023-02-26T14:22:30.231Z,36.61
2023-02-26T14:24:37.518Z,36.62
2023-02-26T14:26:44.001Z,36.44
2023-02-26T14:28:57.167Z,35.55
2023-02-26T14:31:08.699Z,35.45
2023-02-26T14:33:18.104Z,35.76
2023-02-26T14:35:25.572Z,35.31
2023-02-26T14:37:29.142Z,35.34
2023-02-26T14:39:39.174Z,34.62
2023-02-26T14:41:42.050Z,34.71
2023-02-26T14:43:57.360Z,35.11
2023-02-26T14:45:59.398Z,35.10
2023-02-26T14:48:05.826Z,34.66
2023-02-26T14:50:08.763Z,35.20
2023-02-26T14:52:12.512Z,34.56
2023-02-26T14:54:20.707Z,34.47
2023-02-26T14:56:28.885Z,34.96
2023-02-26T14:58:37.031Z,33.95
2023-02-26T15:00:42.463Z,34.06
2023-02-26T15:02:50.617Z,34.16
2023-02-26T15:04:57.342Z,34.53
2023-02-26T15:07:06.630Z,33.67
2023-02-26T15:09:11.985Z,34.36
2023-02-26T15:11:17.404Z,33.49
2023-02-26T15:13:22.879Z,34.78
2023-02-26T15:15:30.979Z,34.23
2023-02-26T15:17:36.151Z,34.74
2023-02-26T15:19:50.335Z,35.11
2023-02-26T15:22:00.129Z,35.11
2023-02-26T15:24:04.872Z,35.50
2023-02-26T15:26:09.596Z,36.22
2023-02-26T15:28:19.340Z,37.78
2023-02-26T15:30:23.369Z,38.54
2023-02-26T15:32:30.618Z,39.70
2023-02-26T15:34:34.073Z,40.19
2023-02-26T15:36:36.167Z,39.24
2023-02-26T15:38:42.622Z,38.90
2023-02-26T15:40:45.454Z,38.98
2023-02-26T15:42:51.997Z,37.25
2023-02-26T15:45:02.014Z,37.79
2023-02-26T15:47:05.488Z,37.44
2023-02-26T15:49:12.094Z,36.90
2023-02-26T15:51:17.718Z,36.63
2023-02-26T15:53:29.326Z,35.80
2023-02-26T15:55:36.352Z,36.12
2023-02-26T15:57:38.580Z,35.47
2023-02-26T15:59:46.565Z,34.83
2023-02-26T16:01:50.482Z,34.74
2023-02-26T16:03:58.551Z,34.66
2023-02-26T16:06:01.039Z,34.88
2023-02-26T16:08:03.204Z,34.85
2023-02-26T16:10:08.718Z,35.00
2023-02-26T16:12:16.536Z,35.31
2023-02-26T16:14:24.720Z,35.41
2023-02-26T16:16:30.365Z,35.19
2023-02-26T16:18:35.756Z,35.43
2023-02-26T16:20:44.954Z,34.66
2023-02-26T16:22:50.657Z,34.62
2023-02-26T16:24:59.462Z,34.37
2023-02-26T16:27:07.207Z,33.76
2023-02-26T16:29:15.283Z,33.15
2023-02-26T16:31:20.706Z,34.15
2023-02-26T16:33:25.226Z,34.07
2023-02-26T16:35:34.941Z,33.98
2023-02-26T16:37:38.001Z,32.96
2023-02-26T16:39:45.624Z,32.22
2023-02-26T16:42:00.826Z,33.04
2023-02-26T16:44:25.123Z,33.54
2023-02-26T16:46:31.601Z,33.05
2023-02-26T16:48:44.157Z,34.34
2023-02-26T16:51:04.204Z,33.52
2023-02-26T16:53:09.144Z,34.40
2023-02-26T16:55:18.761Z,33.61
2023-02-26T16:57:27.424Z,34.10
2023-02-26T16:59:35.377Z,34.79
2023-02-26T17:01:41.238Z,33.92
2023-02-26T17:03:50.723Z,34.98
2023-02-26T17:05:56.163Z,34.41
2023-02-26T17:08:08.709Z,34.04
2023-02-26T17:10:19.532Z,35.05
2023-02-26T17:12:28.974Z,34.85
2023-02-26T17:14:40.288Z,35.31
2023-02-26T17:16:44.594Z,35.47
2023-02-26T17:18:46.538Z,35.85
2023-02-26T17:20:50.119Z,35.82
2023-02-26T17:22:53.251Z,36.64
2023-02-26T17:24:55.584Z,36.98
2023-02-26T17:26:57.922Z,36.55
2023-02-26T17:28:59.918Z,37.36
2023-02-26T17:31:02.682Z,37.49
2023-02-26T17:33:05.110Z,37.06
2023-02-26T17:35:08.674Z,38.14
2023-02-26T17:37:13.389Z,37.38
2023-02-26T17:39:15.964Z,37.95
2023-02-26T17:41:19.105Z,37.53
2023-02-26T17:43:22.004Z,37.95
2023-02-26T17:45:24.432Z,37.43
2023-02-26T17:47:27.293Z,38.09
2023-02-26T17:49:29.460Z,38.32
2023-02-26T17:51:31.695Z,37.97
2023-02-26T17:53:41.336Z,38.47
2023-02-26T17:55:45.259Z,38.26
2023-02-26T17:57:47.898Z,38.68
2023-02-26T17:59:49.929Z,38.99
2023-02-26T18:01:53.509Z,39.26
2023-02-26T18:03:55.938Z,39.68
2023-02-26T18:05:59.958Z,39.09
2023-02-26T18:08:02.091Z,39.61
2023-02-26T18:10:04.983Z,39.89
2023-02-26T18:12:09.269Z,39.85
2023-02-26T18:14:11.498Z,40.31
2023-02-26T18:16:18.903Z,40.64
2023-02-26T18:18:22.533Z,40.43
2023-02-26T18:20:24.449Z,40.38
2023-02-26T18:22:27.628Z,40.38
2023-02-26T18:24:29.705Z,40.56
2023-02-26T18:26:33.627Z,40.29
2023-02-26T18:28:35.656Z,40.25
2023-02-26T18:30:40.710Z,41.16
2023-02-26T18:32:42.718Z,41.31
2023-02-26T18:34:44.893Z,41.24
2023-02-26T18:36:49.347Z,40.92
2023-02-26T18:38:51.765Z,41.06
2023-02-26T18:40:57.532Z,40.67
2023-02-26T18:42:59.742Z,40.53
2023-02-26T18:45:01.804Z,40.63
2023-02-26T18:47:04.426Z,40.54
2023-02-26T18:49:17.118Z,40.13
2023-02-26T18:51:19.129Z,39.72
2023-02-26T18:53:23.792Z,39.73
2023-02-26T18:55:26.463Z,39.79
2023-02-26T18:57:28.473Z,39.60
2023-02-26T18:59:30.503Z,39.39
2023-02-26T19:01:32.891Z,39.18
2023-02-26T19:03:35.538Z,39.58
2023-02-26T19:05:37.960Z,39.17
2023-02-26T19:07:40.321Z,39.23
2023-02-26T19:09:42.160Z,39.43
2023-02-26T19:11:44.164Z,38.81
2023-02-26T19:13:47.162Z,38.59
2023-02-26T19:15:49.747Z,39.21
2023-02-26T19:17:52.126Z,38.93
2023-02-26T19:19:54.102Z,39.28
2023-02-26T19:21:56.059Z,39.03
2023-02-26T19:23:58.649Z,39.50
2023-02-26T19:26:00.597Z,39.60
2023-02-26T19:28:04.136Z,39.45
2023-02-26T19:30:07.400Z,39.93
2023-02-26T19:32:09.722Z,39.54
2023-02-26T19:34:12.861Z,39.77
2023-02-26T19:36:15.237Z,39.97
2023-02-26T19:38:17.657Z,39.75
2023-02-26T19:40:20.335Z,40.14
2023-02-26T19:42:22.546Z,40.54
2023-02-26T19:44:27.577Z,40.05
2023-02-26T19:46:29.677Z,40.47
2023-02-26T19:48:31.972Z,40.56
2023-02-26T19:50:34.156Z,40.38
2023-02-26T19:52:37.373Z,40.45
2023-02-26T19:54:41.587Z,40.41
2023-02-26T19:56:44.208Z,40.37
2023-02-26T19:58:46.023Z,41.02
2023-02-26T20:00:47.982Z,41.00
2023-02-26T20:02:50.237Z,40.65
2023-02-26T20:04:52.103Z,40.86
2023-02-26T20:06:53.989Z,40.85
2023-02-26T20:08:55.864Z,40.73
2023-02-26T20:11:03.220Z,40.68
2023-02-26T20:13:05.277Z,41.04
2023-02-26T20:15:08.847Z,40.98
2023-02-26T20:17:10.692Z,41.10
2023-02-26T20:19:12.655Z,41.09
2023-02-26T20:21:14.656Z,41.05
2023-02-26T20:23:16.583Z,40.91
2023-02-26T20:25:20.027Z,41.41
2023-02-26T20:27:23.439Z,41.04
2023-02-26T20:29:25.638Z,41.13
2023-02-26T20:31:28.750Z,41.49
2023-02-26T20:33:33.385Z,41.41
2023-02-26T20:35:35.810Z,41.31
2023-02-26T20:37:37.792Z,41.29
2023-02-26T20:39:39.667Z,41.39
2023-02-26T20:41:44.011Z,41.19
2023-02-26T20:43:46.004Z,41.77
2023-02-26T20:45:49.735Z,41.76
2023-02-26T20:47:51.730Z,41.09
2023-02-26T20:49:53.891Z,41.65
2023-02-26T20:51:55.966Z,41.35
2023-02-26T20:53:57.815Z,41.28
2023-02-26T20:56:00.217Z,41.89
2023-02-26T20:58:02.588Z,41.44
2023-02-26T21:00:10.722Z,41.83
2023-02-26T21:02:15.591Z,41.63
2023-02-26T21:04:18.245Z,41.43
2023-02-26T21:06:20.114Z,42.11
2023-02-26T21:08:22.655Z,42.15
2023-02-26T21:10:24.586Z,41.89
2023-02-26T21:12:28.545Z,41.83
2023-02-26T21:14:32.990Z,42.31
2023-02-26T21:16:39.845Z,41.93
2023-02-26T21:18:41.715Z,42.13
2023-02-26T21:20:45.801Z,42.28
2023-02-26T21:22:47.868Z,42.96
2023-02-26T21:24:49.995Z,42.27
2023-02-26T21:26:52.032Z,42.54
2023-02-26T21:28:54.247Z,42.75
2023-02-26T21:31:00.007Z,42.47
2023-02-26T21:33:02.289Z,42.49
2023-02-26T21:35:04.528Z,43.47
2023-02-26T21:37:10.044Z,42.85
2023-02-26T21:39:12.151Z,42.61
2023-02-26T21:41:14.204Z,43.36
2023-02-26T21:43:16.171Z,43.47
2023-02-26T21:45:18.412Z,42.97
2023-02-26T21:47:22.388Z,43.45
2023-02-26T21:49:26.375Z,43.11
2023-02-26T21:51:28.680Z,43.35
2023-02-26T21:53:30.776Z,43.93
2023-02-26T21:55:33.209Z,43.98
2023-02-26T21:57:35.089Z,43.81
2023-02-26T21:59:36.997Z,43.92
2023-02-26T22:01:38.828Z,43.68
2023-02-26T22:03:40.583Z,43.98
2023-02-26T22:05:42.477Z,44.14
2023-02-26T22:07:46.543Z,43.74
2023-02-26T22:09:49.175Z,44.00
2023-02-26T22:11:51.103Z,44.33
2023-02-26T22:13:53.262Z,44.41
2023-02-26T22:15:55.222Z,44.39
2023-02-26T22:17:57.568Z,44.47
2023-02-26T22:19:59.597Z,44.75
2023-02-26T22:22:04.402Z,45.20
2023-02-26T22:24:08.514Z,45.01
2023-02-26T22:26:11.456Z,45.21
2023-02-26T22:28:13.591Z,45.04
2023-02-26T22:30:19.384Z,45.01
2023-02-26T22:32:22.830Z,45.10
2023-02-26T22:34:25.802Z,45.32
2023-02-26T22:36:32.662Z,44.89
2023-02-26T22:38:35.800Z,45.27
2023-02-26T22:40:40.314Z,45.39
2023-02-26T22:42:44.272Z,45.27
2023-02-26T22:44:46.853Z,45.46
2023-02-26T22:46:50.356Z,45.44
2023-02-26T22:48:52.396Z,45.48
2023-02-26T22:50:54.187Z,45.60
2023-02-26T22:52:56.122Z,45.56
2023-02-26T22:54:58.169Z,46.12
2023-02-26T22:57:00.583Z,46.23
2023-02-26T22:59:04.667Z,46.45
2023-02-26T23:01:07.850Z,46.05
2023-02-26T23:03:09.796Z,46.24
2023-02-26T23:05:12.358Z,45.92
2023-02-26T23:07:14.227Z,46.85
2023-02-26T23:09:16.184Z,46.38
2023-02-26T23:11:18.153Z,46.67
2023-02-26T23:13:20.001Z,46.60
2023-02-26T23:15:21.956Z,46.45
2023-02-26T23:17:23.871Z,46.09
2023-02-26T23:19:26.362Z,46.29
2023-02-26T23:21:29.023Z,46.32
2023-02-26T23:23:31.522Z,47.12
2023-02-26T23:25:33.466Z,47.03
2023-02-26T23:27:35.408Z,47.31
2023-02-26T23:29:39.497Z,46.67
2023-02-26T23:31:42.045Z,47.08
2023-02-26T23:33:44.367Z,47.19
2023-02-26T23:35:48.554Z,47.29
2023-02-26T23:37:50.760Z,47.00
2023-02-26T23:39:53.059Z,47.59
2023-02-26T23:41:56.477Z,47.53
2023-02-26T23:43:58.381Z,47.44
2023-02-26T23:46:00.296Z,47.39
2023-02-26T23:48:02.261Z,47.85
2023-02-26T23:50:05.267Z,46.87
2023-02-26T23:52:09.416Z,47.47
2023-02-26T23:54:12.296Z,47.16
2023-02-26T23:56:14.161Z,47.16
2023-02-26T23:58:16.127Z,47.81
